Ashley, Wisconsin
Current Conditions -  °F | °C
As of 7:50 AM on Friday 24 Oct 2014 (Local Time) from KCWA Reporting Station
Moderate Fog Moderate Fog  
Wind Chill: 42°   Ceiling: 200
Heat Index: 45°   Visibility: 0.25mi
Dew Point: 45°   Wind: 5mph
Humidity: 100%   Direction: 200°SSW
Pressure: 30.01"   Gusts: NA
Location:  44.7605°N, 89.5918°W
Report Text: KCWA 241250Z 20004KT 1/4SM FG OVC002 07/07 A3001
Loading
Personal Weather Stations






























Interactive Weather Map
Tropical Storm Tracking
New forecast layout! Learn more

10-Day Weather Forecast

Advertisements
Track Severe Weather on mobile